createdAt,value
2019-05-01T00:00:56.298Z,43.33
2019-05-01T00:03:25.775Z,45.33
2019-05-01T00:05:58.420Z,48.20
2019-05-01T00:08:26.081Z,52.48
2019-05-01T00:10:52.992Z,49.90
2019-05-01T00:13:20.122Z,49.88
2019-05-01T00:15:47.330Z,51.92
2019-05-01T00:18:16.524Z,53.17
2019-05-01T00:20:43.464Z,49.33
2019-05-01T00:23:10.565Z,49.65
2019-05-01T00:25:37.724Z,45.15
2019-05-01T00:28:05.578Z,45.48
2019-05-01T00:30:33.471Z,46.88
2019-05-01T00:33:00.382Z,50.23
2019-05-01T00:35:27.628Z,47.55
2019-05-01T00:37:54.626Z,47.70
2019-05-01T00:40:21.455Z,49.33
2019-05-01T00:42:48.659Z,46.48
2019-05-01T00:45:16.020Z,49.93
2019-05-01T00:47:43.019Z,42.08
2019-05-01T00:50:10.458Z,46.50
2019-05-01T00:52:37.580Z,47.78
2019-05-01T00:55:08.626Z,46.48
2019-05-01T00:57:37.759Z,47.08
2019-05-01T01:00:23.788Z,44.85
2019-05-01T01:02:53.652Z,43.17
2019-05-01T01:05:20.914Z,41.18
2019-05-01T01:07:48.315Z,48.25
2019-05-01T01:10:15.530Z,43.90
2019-05-01T01:12:42.852Z,50.20
2019-05-01T01:15:10.282Z,56.40
2019-05-01T01:17:37.378Z,52.73
2019-05-01T01:20:04.814Z,55.50
2019-05-01T01:22:32.210Z,52.25
2019-05-01T01:25:00.279Z,41.63
2019-05-01T01:27:27.686Z,44.25
2019-05-01T01:29:55.025Z,52.73
2019-05-01T01:32:22.335Z,60.43
2019-05-01T01:34:49.470Z,60.67
2019-05-01T01:37:16.667Z,63.40
2019-05-01T01:39:44.267Z,71.00
2019-05-01T01:42:13.336Z,90.05
2019-05-01T01:44:51.319Z,74.95
2019-05-01T01:47:18.459Z,51.55
2019-05-01T01:49:45.819Z,51.83
2019-05-01T01:52:13.809Z,62.80
2019-05-01T01:54:40.998Z,66.45
2019-05-01T01:57:09.045Z,68.95
2019-05-01T01:59:36.847Z,71.75
2019-05-01T02:02:12.755Z,83.72
2019-05-01T02:07:09.310Z,61.53
2019-05-01T02:09:36.865Z,59.30
2019-05-01T02:12:04.483Z,56.53
2019-05-01T02:14:31.861Z,61.23
2019-05-01T02:16:58.866Z,51.25
2019-05-01T02:19:26.182Z,53.52
2019-05-01T02:21:53.304Z,53.33
2019-05-01T02:24:20.586Z,56.83
2019-05-01T02:26:52.183Z,59.30
2019-05-01T02:29:37.049Z,58.23
2019-05-01T02:32:04.569Z,63.20
2019-05-01T02:34:32.572Z,50.40
2019-05-01T02:37:02.447Z,44.03
2019-05-01T02:39:31.186Z,47.78
2019-05-01T02:42:00.949Z,44.08
2019-05-01T02:44:42.621Z,42.05
2019-05-01T02:47:15.301Z,57.15
2019-05-01T02:49:53.851Z,49.42
2019-05-01T02:52:26.776Z,71.92
2019-05-01T02:54:57.690Z,96.22
2019-05-01T02:57:25.007Z,47.83
2019-05-01T02:59:54.349Z,55.25
2019-05-01T03:02:24.347Z,53.58
2019-05-01T03:04:51.514Z,49.83
2019-05-01T03:07:21.249Z,48.58
2019-05-01T03:09:49.482Z,62.00
2019-05-01T03:12:20.400Z,66.25
2019-05-01T03:14:50.715Z,61.73
2019-05-01T03:17:36.306Z,129.90
2019-05-01T03:20:07.319Z,46.57
2019-05-01T03:22:44.719Z,44.95
2019-05-01T03:25:12.403Z,43.55
2019-05-01T03:27:41.189Z,43.38
2019-05-01T03:30:08.530Z,46.60
2019-05-01T03:32:35.839Z,57.75
2019-05-01T03:35:05.255Z,63.30
2019-05-01T03:37:32.681Z,78.87
2019-05-01T03:40:00.163Z,67.97
2019-05-01T03:42:28.512Z,48.10
2019-05-01T03:44:56.122Z,39.65
2019-05-01T03:47:23.519Z,37.67
2019-05-01T03:49:51.296Z,40.55
2019-05-01T03:52:18.579Z,41.37
2019-05-01T03:54:45.927Z,42.45
2019-05-01T03:57:13.431Z,42.13
2019-05-01T03:59:40.720Z,43.17
2019-05-01T04:02:32.831Z,40.88
2019-05-01T04:04:52.150Z,38.60
2019-05-01T04:07:19.685Z,40.52
2019-05-01T04:09:47.249Z,38.23
2019-05-01T04:12:14.560Z,50.30
2019-05-01T04:14:41.961Z,49.58
2019-05-01T04:17:11.187Z,51.13
2019-05-01T04:19:38.774Z,44.40
2019-05-01T04:22:12.744Z,49.23
2019-05-01T04:24:40.684Z,48.85
2019-05-01T04:27:10.313Z,83.10
2019-05-01T04:29:42.238Z,66.72
2019-05-01T04:32:11.305Z,56.60
2019-05-01T04:34:40.399Z,50.30
2019-05-01T04:37:12.481Z,50.75
2019-05-01T04:39:39.707Z,47.03
2019-05-01T04:42:07.674Z,49.00
2019-05-01T04:44:35.166Z,44.30
2019-05-01T04:47:02.619Z,41.58
2019-05-01T04:49:29.928Z,39.08
2019-05-01T04:51:57.293Z,39.13
2019-05-01T04:54:24.506Z,38.53
2019-05-01T04:56:51.779Z,40.03
2019-05-01T04:59:19.072Z,43.68
2019-05-01T05:01:57.291Z,40.67
2019-05-01T05:04:25.460Z,39.67
2019-05-01T05:06:53.727Z,36.70
2019-05-01T05:09:23.323Z,33.28
2019-05-01T05:11:57.855Z,29.57
2019-05-01T05:14:32.819Z,31.93
2019-05-01T05:17:00.444Z,34.33
2019-05-01T05:19:27.632Z,37.78
2019-05-01T05:21:55.375Z,30.02
2019-05-01T05:24:22.789Z,33.73
2019-05-01T05:26:50.169Z,30.45
2019-05-01T05:29:18.362Z,29.07
2019-05-01T05:31:51.056Z,26.82
2019-05-01T05:34:19.655Z,34.08
2019-05-01T05:36:49.886Z,25.32
2019-05-01T05:39:28.783Z,25.85
2019-05-01T05:41:56.494Z,28.25
2019-05-01T05:44:23.874Z,28.73
2019-05-01T05:46:51.063Z,34.43
2019-05-01T05:49:19.031Z,27.77
2019-05-01T05:51:50.109Z,23.25
2019-05-01T05:54:28.976Z,26.05
2019-05-01T05:57:01.588Z,29.80
2019-05-01T05:59:33.463Z,26.23
2019-05-01T06:02:07.779Z,28.30
2019-05-01T06:04:40.836Z,29.87
2019-05-01T06:07:08.790Z,27.95
2019-05-01T06:09:48.488Z,26.68
2019-05-01T06:12:20.844Z,21.73
2019-05-01T06:15:02.426Z,20.80
2019-05-01T06:17:28.724Z,25.40
2019-05-01T06:19:59.125Z,23.62
2019-05-01T06:22:35.277Z,23.45
2019-05-01T06:27:32.897Z,24.90
2019-05-01T06:30:00.543Z,21.93
2019-05-01T06:32:28.835Z,18.92
2019-05-01T06:34:58.423Z,24.87
2019-05-01T06:37:56.031Z,19.82
2019-05-01T06:40:38.331Z,19.10
2019-05-01T06:43:11.662Z,17.95
2019-05-01T06:45:41.180Z,15.32
2019-05-01T06:48:14.339Z,17.32
2019-05-01T06:50:42.714Z,19.30
2019-05-01T06:53:10.004Z,17.55
2019-05-01T06:55:37.992Z,20.97
2019-05-01T06:58:05.486Z,13.20
2019-05-01T07:00:33.531Z,21.07
2019-05-01T07:03:01.295Z,16.10
2019-05-01T07:05:29.245Z,18.70
2019-05-01T07:07:56.638Z,11.08
2019-05-01T07:10:31.631Z,17.17
2019-05-01T07:12:54.887Z,9.98
2019-05-01T07:15:26.657Z,16.32
2019-05-01T07:17:51.151Z,17.30
2019-05-01T07:20:27.307Z,10.70
2019-05-01T07:22:54.647Z,12.05
2019-05-01T07:25:22.102Z,12.55
2019-05-01T07:27:49.134Z,11.97
2019-05-01T07:30:22.090Z,10.28
2019-05-01T07:32:49.091Z,13.30
2019-05-01T07:35:16.142Z,9.48
2019-05-01T07:37:43.547Z,9.83
2019-05-01T07:40:11.082Z,8.28
2019-05-01T07:42:48.308Z,9.95
2019-05-01T07:45:39.022Z,10.50
2019-05-01T07:48:06.877Z,14.13
2019-05-01T07:50:34.995Z,8.70
2019-05-01T07:53:02.216Z,14.47
2019-05-01T07:55:35.438Z,8.83
2019-05-01T07:58:04.931Z,10.30
2019-05-01T08:01:05.068Z,13.40
2019-05-01T08:03:32.255Z,7.58
2019-05-01T08:05:59.242Z,7.15
2019-05-01T08:08:26.382Z,7.40
2019-05-01T08:10:53.385Z,10.23
2019-05-01T08:13:20.306Z,11.80
2019-05-01T08:15:47.344Z,8.08
2019-05-01T08:18:24.141Z,10.78
2019-05-01T08:20:50.390Z,9.93
2019-05-01T08:23:17.854Z,8.28
2019-05-01T08:25:44.747Z,11.10
2019-05-01T08:28:13.931Z,9.03
2019-05-01T08:30:54.112Z,11.83
2019-05-01T08:33:33.067Z,10.43
2019-05-01T08:36:00.131Z,9.50
2019-05-01T08:38:29.753Z,9.80
2019-05-01T08:40:56.775Z,10.78
2019-05-01T08:43:23.947Z,10.32
2019-05-01T08:46:11.790Z,12.78
2019-05-01T08:48:40.300Z,11.70
2019-05-01T08:51:07.494Z,8.95
2019-05-01T08:53:34.445Z,7.20
2019-05-01T08:56:01.582Z,15.80
2019-05-01T08:58:28.451Z,10.63
2019-05-01T09:00:55.352Z,10.18
2019-05-01T09:03:22.674Z,11.35
2019-05-01T09:05:52.380Z,13.32
2019-05-01T09:08:18.696Z,10.00
2019-05-01T09:10:45.931Z,9.68
2019-05-01T09:13:12.875Z,10.70
2019-05-01T09:15:43.748Z,10.20
2019-05-01T09:18:08.617Z,8.33
2019-05-01T09:20:37.176Z,10.40
2019-05-01T09:23:04.184Z,10.13
2019-05-01T09:25:36.918Z,8.10
2019-05-01T09:28:09.336Z,14.83
2019-05-01T09:30:38.347Z,9.95
2019-05-01T09:33:05.571Z,9.35
2019-05-01T09:35:32.718Z,10.55
2019-05-01T09:37:59.741Z,9.65
2019-05-01T09:40:26.778Z,9.48
2019-05-01T09:42:54.593Z,10.25
2019-05-01T09:45:22.900Z,15.72
2019-05-01T09:47:50.075Z,12.82
2019-05-01T09:50:17.266Z,9.50
2019-05-01T09:52:50.119Z,8.30
2019-05-01T09:55:36.526Z,8.15
2019-05-01T09:58:03.727Z,8.73
2019-05-01T10:00:32.383Z,8.48
2019-05-01T10:02:59.667Z,8.55
2019-05-01T10:05:29.216Z,9.83
2019-05-01T10:08:00.094Z,11.57
2019-05-01T10:10:29.342Z,9.33
2019-05-01T10:12:54.398Z,13.85
2019-05-01T10:15:21.442Z,10.25
2019-05-01T10:17:48.614Z,13.50
2019-05-01T10:20:15.466Z,10.15
2019-05-01T10:22:44.863Z,11.22
2019-05-01T10:25:13.447Z,10.05
2019-05-01T10:27:43.219Z,7.95
2019-05-01T10:30:12.767Z,15.98
2019-05-01T10:32:41.923Z,6.70
2019-05-01T10:35:14.215Z,10.98
2019-05-01T10:37:39.951Z,9.58
2019-05-01T10:40:08.100Z,10.35
2019-05-01T10:42:35.118Z,10.72
2019-05-01T10:45:04.229Z,8.60
2019-05-01T10:47:31.035Z,10.32
2019-05-01T10:49:58.097Z,6.80
2019-05-01T10:52:25.263Z,8.70
2019-05-01T10:54:52.245Z,8.38
2019-05-01T10:57:19.041Z,12.05
2019-05-01T10:59:45.875Z,9.98
2019-05-01T11:02:13.911Z,13.03
2019-05-01T11:04:40.786Z,10.23
2019-05-01T11:07:07.935Z,10.20
2019-05-01T11:09:35.018Z,11.15
2019-05-01T11:12:02.059Z,10.05
2019-05-01T11:14:30.410Z,12.25
2019-05-01T11:16:57.439Z,9.33
2019-05-01T11:19:24.427Z,7.83
2019-05-01T11:21:51.610Z,12.70
2019-05-01T11:24:18.676Z,11.73
2019-05-01T11:26:45.622Z,11.30
2019-05-01T11:29:12.722Z,12.53
2019-05-01T11:31:51.374Z,8.68
2019-05-01T11:34:36.980Z,8.68
2019-05-01T11:37:23.115Z,13.93
2019-05-01T11:39:52.114Z,13.43
2019-05-01T11:42:19.331Z,6.47
2019-05-01T11:44:46.408Z,9.35
2019-05-01T11:47:13.450Z,11.00
2019-05-01T11:49:40.334Z,8.25
2019-05-01T11:52:07.343Z,10.30
2019-05-01T11:54:34.365Z,11.40
2019-05-01T11:57:01.412Z,11.33
2019-05-01T11:59:28.341Z,10.50
2019-05-01T12:01:55.735Z,9.38
2019-05-01T12:04:22.736Z,7.17
2019-05-01T12:06:49.878Z,10.00
2019-05-01T12:09:17.483Z,13.50
2019-05-01T12:11:46.523Z,10.75
2019-05-01T12:14:13.535Z,9.85
2019-05-01T12:16:52.662Z,9.73
2019-05-01T12:19:21.775Z,9.03
2019-05-01T12:21:48.933Z,9.48
2019-05-01T12:24:15.930Z,11.12
2019-05-01T12:26:42.891Z,7.42
2019-05-01T12:29:10.242Z,9.70
2019-05-01T12:31:37.202Z,9.08
2019-05-01T12:34:04.139Z,10.05
2019-05-01T12:36:36.382Z,7.12
2019-05-01T12:39:00.024Z,8.50
2019-05-01T12:41:34.721Z,8.70
2019-05-01T12:44:01.883Z,8.63
2019-05-01T12:46:40.816Z,9.78
2019-05-01T12:49:07.935Z,7.30
2019-05-01T12:51:35.435Z,10.10
2019-05-01T12:54:04.692Z,8.90
2019-05-01T12:56:36.831Z,9.95
2019-05-01T12:59:03.864Z,14.23
2019-05-01T13:01:30.817Z,9.90
2019-05-01T13:03:57.835Z,13.93
2019-05-01T13:06:25.781Z,6.87
2019-05-01T13:08:52.789Z,14.10
2019-05-01T13:11:19.855Z,9.63
2019-05-01T13:13:46.651Z,14.47
2019-05-01T13:16:13.725Z,9.03
2019-05-01T13:18:40.642Z,8.63
2019-05-01T13:21:09.948Z,10.15
2019-05-01T13:23:36.911Z,9.43
2019-05-01T13:26:05.886Z,13.53
2019-05-01T13:28:37.290Z,9.03
2019-05-01T13:31:04.635Z,10.15
2019-05-01T13:33:31.639Z,10.88
2019-05-01T13:35:58.887Z,9.68
2019-05-01T13:38:25.779Z,8.53
2019-05-01T13:40:53.231Z,6.83
2019-05-01T13:43:20.318Z,9.55
2019-05-01T13:45:47.261Z,8.98
2019-05-01T13:48:14.356Z,7.83
2019-05-01T13:50:41.319Z,6.25
2019-05-01T13:53:08.293Z,7.50
2019-05-01T13:55:35.287Z,7.87
2019-05-01T13:58:02.451Z,7.17
2019-05-01T14:00:29.461Z,8.03
2019-05-01T14:02:56.734Z,7.53
2019-05-01T14:05:23.929Z,9.28
2019-05-01T14:07:50.816Z,8.53
2019-05-01T14:10:17.945Z,9.20
2019-05-01T14:12:45.219Z,9.78
2019-05-01T14:15:12.656Z,9.60
2019-05-01T14:17:39.623Z,13.32
2019-05-01T14:20:16.443Z,9.65
2019-05-01T14:22:57.160Z,8.10
2019-05-01T14:25:24.072Z,8.63
2019-05-01T14:27:51.083Z,22.48
2019-05-01T14:30:18.353Z,11.40
2019-05-01T14:32:45.398Z,16.07
2019-05-01T14:35:13.811Z,14.07
2019-05-01T14:37:40.674Z,17.00
2019-05-01T14:40:08.373Z,13.25
2019-05-01T14:42:35.407Z,21.42
2019-05-01T14:45:06.406Z,23.35
2019-05-01T14:47:33.415Z,26.75
2019-05-01T14:50:00.318Z,17.95
2019-05-01T14:52:27.317Z,12.28
2019-05-01T14:54:54.373Z,13.78
2019-05-01T14:57:21.496Z,8.68
2019-05-01T14:59:48.542Z,10.85
2019-05-01T15:02:15.594Z,15.23
2019-05-01T15:04:42.552Z,11.00
2019-05-01T15:07:11.237Z,45.70
2019-05-01T15:09:38.346Z,111.97
2019-05-01T15:12:07.982Z,12.82
2019-05-01T15:14:36.891Z,8.93
2019-05-01T15:17:08.579Z,15.08
2019-05-01T15:19:43.542Z,11.50
2019-05-01T15:22:10.546Z,11.12
2019-05-01T15:24:37.548Z,7.28
2019-05-01T15:27:04.680Z,8.98
2019-05-01T15:29:31.697Z,9.38
2019-05-01T15:31:59.008Z,6.65
2019-05-01T15:34:25.816Z,9.30
2019-05-01T15:36:52.731Z,11.38
2019-05-01T15:39:30.693Z,8.88
2019-05-01T15:42:12.733Z,8.78
2019-05-01T15:44:41.581Z,9.85
2019-05-01T15:47:08.780Z,7.17
2019-05-01T15:49:35.730Z,8.85
2019-05-01T15:52:03.335Z,10.90
2019-05-01T15:54:30.382Z,10.05
2019-05-01T15:56:57.275Z,10.75
2019-05-01T15:59:24.303Z,9.28
2019-05-01T16:01:51.477Z,10.18
2019-05-01T16:04:18.594Z,6.53
2019-05-01T16:06:45.704Z,11.60
2019-05-01T16:09:12.978Z,7.85
2019-05-01T16:11:44.875Z,7.72
2019-05-01T16:14:11.996Z,8.85
2019-05-01T16:16:38.888Z,28.25
2019-05-01T16:19:05.731Z,18.92
2019-05-01T16:21:32.725Z,22.13
2019-05-01T16:24:00.050Z,16.90
2019-05-01T16:26:26.992Z,16.97
2019-05-01T16:28:53.978Z,19.37
2019-05-01T16:31:20.999Z,9.13
2019-05-01T16:33:47.933Z,9.33
2019-05-01T16:36:14.959Z,11.65
2019-05-01T16:38:44.086Z,8.85
2019-05-01T16:44:38.207Z,10.45
2019-05-01T16:47:05.320Z,14.47
2019-05-01T16:49:32.488Z,8.98
2019-05-01T16:51:59.551Z,26.37
2019-05-01T16:54:26.549Z,26.68
2019-05-01T16:56:53.486Z,34.27
2019-05-01T16:59:20.271Z,52.70
2019-05-01T17:01:51.809Z,28.10
2019-05-01T17:04:29.401Z,41.28
2019-05-01T17:07:07.220Z,36.95
2019-05-01T17:09:40.219Z,30.72
2019-05-01T17:12:07.468Z,37.50
2019-05-01T17:14:34.576Z,30.55
2019-05-01T17:17:01.600Z,36.65
2019-05-01T17:19:28.529Z,36.17
2019-05-01T17:21:55.452Z,24.72
2019-05-01T17:24:22.400Z,44.25
2019-05-01T17:26:49.384Z,70.20
2019-05-01T17:29:16.379Z,65.37
2019-05-01T17:31:43.419Z,84.00
2019-05-01T17:34:11.183Z,72.70
2019-05-01T17:36:38.158Z,74.60
2019-05-01T17:39:05.328Z,85.60
2019-05-01T17:41:32.328Z,49.75
2019-05-01T17:43:59.494Z,34.75
2019-05-01T17:46:26.411Z,47.13
2019-05-01T17:48:53.380Z,49.83
2019-05-01T17:51:20.386Z,37.05
2019-05-01T17:53:47.328Z,39.65
2019-05-01T17:56:15.224Z,34.85
2019-05-01T17:58:43.067Z,35.28
2019-05-01T18:01:33.141Z,43.45
2019-05-01T18:12:55.082Z,57.53
2019-05-01T18:15:22.317Z,41.95
2019-05-01T18:17:49.427Z,35.15
2019-05-01T18:20:16.369Z,33.55
2019-05-01T18:22:45.217Z,33.05
2019-05-01T18:25:14.163Z,37.13
2019-05-01T18:27:54.450Z,34.98
2019-05-01T18:30:23.787Z,37.23
2019-05-01T18:32:52.529Z,35.83
2019-05-01T18:35:19.815Z,43.87
2019-05-01T18:37:57.483Z,75.67
2019-05-01T18:40:29.220Z,95.12
2019-05-01T18:42:56.142Z,101.02
2019-05-01T18:45:49.685Z,126.60
2019-05-01T18:48:17.536Z,110.88
2019-05-01T18:50:49.314Z,91.37
2019-05-01T18:53:13.980Z,100.85
2019-05-01T18:55:40.873Z,89.40
2019-05-01T18:58:07.931Z,51.45
2019-05-01T19:00:35.039Z,75.92
2019-05-01T19:03:04.213Z,77.35
2019-05-01T19:05:31.471Z,77.82
2019-05-01T19:07:58.390Z,82.42
2019-05-01T19:10:25.509Z,74.92
2019-05-01T19:12:52.435Z,97.45
2019-05-01T19:15:19.697Z,91.87
2019-05-01T19:17:46.863Z,77.40
2019-05-01T19:20:14.095Z,65.00
2019-05-01T19:22:40.927Z,52.20
2019-05-01T19:25:10.883Z,49.50
2019-05-01T19:27:37.439Z,55.35
2019-05-01T19:30:09.886Z,44.67
2019-05-01T19:32:36.258Z,37.93
2019-05-01T19:35:07.090Z,36.33
2019-05-01T19:37:33.933Z,40.88
2019-05-01T19:40:01.593Z,40.43
2019-05-01T19:42:28.805Z,41.15
2019-05-01T19:44:57.428Z,35.15
2019-05-01T19:47:25.176Z,37.28
2019-05-01T19:49:54.560Z,39.27
2019-05-01T19:52:21.314Z,37.25
2019-05-01T19:54:48.325Z,35.98
2019-05-01T19:57:15.758Z,37.78
2019-05-01T19:59:42.857Z,40.90
2019-05-01T20:02:11.602Z,39.73
2019-05-01T20:04:38.607Z,40.20
2019-05-01T20:07:10.693Z,43.35
2019-05-01T20:09:35.427Z,49.40
2019-05-01T20:12:03.491Z,48.50
2019-05-01T20:14:30.662Z,44.03
2019-05-01T20:16:57.882Z,41.53
2019-05-01T20:19:24.963Z,43.00
2019-05-01T20:21:52.105Z,41.45
2019-05-01T20:24:19.429Z,35.23
2019-05-01T20:26:46.982Z,36.90
2019-05-01T20:29:14.109Z,47.75
2019-05-01T20:31:45.870Z,100.67
2019-05-01T20:34:12.075Z,152.12
2019-05-01T20:36:39.782Z,66.72
2019-05-01T20:39:07.297Z,103.27
2019-05-01T20:41:34.400Z,117.80
2019-05-01T20:44:01.744Z,66.53
2019-05-01T20:46:28.624Z,57.40
2019-05-01T20:48:56.160Z,41.65
2019-05-01T20:51:24.938Z,32.15
2019-05-01T20:53:52.469Z,29.92
2019-05-01T20:56:21.488Z,31.10
2019-05-01T20:58:48.648Z,28.20
2019-05-01T21:01:15.914Z,26.17
2019-05-01T21:03:44.721Z,33.15
2019-05-01T21:06:13.658Z,56.20
2019-05-01T21:08:42.659Z,63.40
2019-05-01T21:11:13.061Z,58.28
2019-05-01T21:13:40.020Z,39.13
2019-05-01T21:16:07.075Z,41.53
2019-05-01T21:18:34.097Z,45.17
2019-05-01T21:21:03.318Z,43.68
2019-05-01T21:23:30.875Z,40.70
2019-05-01T21:25:57.678Z,40.55
2019-05-01T21:28:24.770Z,44.40
2019-05-01T21:30:54.388Z,41.75
2019-05-01T21:33:23.634Z,49.05
2019-05-01T21:35:50.199Z,45.65
2019-05-01T21:38:17.199Z,48.63
2019-05-01T21:40:44.103Z,45.05
2019-05-01T21:43:13.418Z,43.85
2019-05-01T21:45:39.977Z,48.60
2019-05-01T21:48:07.246Z,44.67
2019-05-01T21:50:34.253Z,44.38
2019-05-01T21:53:03.309Z,42.95
2019-05-01T21:55:31.790Z,38.83
2019-05-01T21:57:58.835Z,42.10
2019-05-01T22:00:28.576Z,39.25
2019-05-01T22:02:55.620Z,38.50
2019-05-01T22:05:22.773Z,37.90
2019-05-01T22:07:49.796Z,36.00
2019-05-01T22:10:16.814Z,41.08
2019-05-01T22:12:48.954Z,41.13
2019-05-01T22:15:31.169Z,38.05
2019-05-01T22:18:00.179Z,41.83
2019-05-01T22:20:29.003Z,41.35
2019-05-01T22:23:00.726Z,47.50
2019-05-01T22:25:32.326Z,44.58
2019-05-01T22:28:13.927Z,46.80
2019-05-01T22:30:42.270Z,43.70
2019-05-01T22:33:09.948Z,45.48
2019-05-01T22:35:47.572Z,44.35
2019-05-01T22:38:14.714Z,48.15
2019-05-01T22:40:47.486Z,44.33
2019-05-01T22:43:14.782Z,46.65
2019-05-01T22:45:41.724Z,48.68
2019-05-01T22:48:08.526Z,45.52
2019-05-01T22:50:35.445Z,45.17
2019-05-01T22:53:02.586Z,44.65
2019-05-01T22:55:29.425Z,48.83
2019-05-01T22:57:56.611Z,43.55
2019-05-01T23:00:40.338Z,44.90
2019-05-01T23:03:09.190Z,44.80
2019-05-01T23:05:36.600Z,46.00
2019-05-01T23:08:03.878Z,41.50
2019-05-01T23:10:31.307Z,42.60
2019-05-01T23:12:58.505Z,41.30
2019-05-01T23:15:27.832Z,39.88
2019-05-01T23:17:55.023Z,44.63
2019-05-01T23:20:22.926Z,48.75
2019-05-01T23:22:49.798Z,43.65
2019-05-01T23:25:17.022Z,47.85
2019-05-01T23:27:44.130Z,42.88
2019-05-01T23:30:13.383Z,44.13
2019-05-01T23:32:40.576Z,41.18
2019-05-01T23:35:07.902Z,40.28
2019-05-01T23:37:36.087Z,38.67
2019-05-01T23:40:05.512Z,42.85
2019-05-01T23:42:32.479Z,47.45
2019-05-01T23:44:59.386Z,44.83
2019-05-01T23:47:26.294Z,44.90
2019-05-01T23:49:53.842Z,41.55
2019-05-01T23:52:21.163Z,43.68
2019-05-01T23:54:48.087Z,39.83
2019-05-01T23:57:18.890Z,42.20
2019-05-01T23:59:43.959Z,42.30
